Rotterdam, Netherlands

9:38 AM CET on January 30, 2015 (GMT +0100)
Orchidee | Change Station
CLOSE
Current Station
Personal Weather Station
Location: Rotterdam, ZUID-HOLLAND
Elevation: 7 ft
Nearby Weather Stations
Active Advisory: Snow/Ice nederlands:

Elev 7 ft 51.94 °N, 4.47 °E | Updated 3 minutes ago

Overcast
Overcast
33.2 °F
Feels Like 33 °F
N
0.0
Wind Variable Wind from SE
Gusts 2.0 mph

Today
High -- | Low -- °F
--% Chance of Precip.
Yesterday
High -- | Low -- °F
Precip. -- in
8:25 AM 5:25 PM
Waxing Gibbous, 81% visible
Pressure 28.85 in
Visibility 1.4 miles
Clouds Overcast 200 ft
Windchill 33 °F
Dew Point 33 °F
Humidity 98%
Rainfall 0.00 in
Snow Depth Not available.
UV 0 out of 12
Pollen Not available.
Air Quality Not available.
Flu Activity Not available.
SPECI EHGR 300826Z AUTO 22005KT 2300 R28/2500 BR OVC002 M00/M00 Q0977 AMB 24009KT 9999 BKN020 TEMPO 2000 BR SCT004 BKN005

More Conditions Fewer Conditions

Pressure 28.85 in
Visibility 1.4 miles
Clouds Overcast 200 ft
Windchill 33 °F
Dew Point 33 °F
Humidity 98%
Rainfall 0.00 in
Snow Depth Not available.
UV 0 out of 12
Pollen Not available.
Air Quality Not available.
Flu Activity Not available.
SPECI EHGR 300826Z AUTO 22005KT 2300 R28/2500 BR OVC002 M00/M00 Q0977 AMB 24009KT 9999 BKN020 TEMPO 2000 BR SCT004 BKN005

More Conditions Fewer Conditions

10-Day Weather Forecast

Almanac

Astronomy

Jan. 30, 2015 Rise Set
Actual Time
Civil Twilight
Nautical Twilight
Astronomical Twilight
Moon
Length of Visible Light
Length of Day
Tomorrow will be .
, % of the Moon is Illuminated

Today's Extremes

Country Highs Country Lows

Community

WunderPhotos

Upload Photos

1,791,730 photos uploaded!

WunderBlogs® & News

Nearby

Air Quality

  Air Quality AQ Index Pollutant
Not available.

Snow Depth

Station Depth Elevation

Earthquake Activity

City Distance Mag. Time & Date
Minimum magnitude displayed is 2.5.

Coastal Water Temperatures

Place Temperature

Nearby Weather Stations